createdAt,value
2019-03-05T00:00:46.084Z,97580.42
2019-03-05T00:02:49.955Z,97586.75
2019-03-05T00:04:53.713Z,97588.94
2019-03-05T00:06:57.909Z,97595.17
2019-03-05T00:09:01.819Z,97604.02
2019-03-05T00:11:05.704Z,97607.89
2019-03-05T00:13:09.516Z,97597.47
2019-03-05T00:15:13.993Z,97584.34
2019-03-05T00:17:17.630Z,97586.11
2019-03-05T00:19:21.553Z,97601.09
2019-03-05T00:21:25.251Z,97613.98
2019-03-05T00:23:54.505Z,97597.98
2019-03-05T00:25:58.255Z,97611.66
2019-03-05T00:28:18.014Z,97610.78
2019-03-05T00:30:51.121Z,97614.52
2019-03-05T00:33:11.496Z,97617.91
2019-03-05T00:35:26.257Z,97617.58
2019-03-05T00:37:42.730Z,97611.00
2019-03-05T00:40:36.690Z,97632.85
2019-03-05T00:43:00.292Z,97636.91
2019-03-05T00:45:50.872Z,97641.67
2019-03-05T00:48:43.607Z,97632.17
2019-03-05T00:50:54.522Z,97621.48
2019-03-05T00:53:09.455Z,97614.63
2019-03-05T00:55:44.693Z,97623.44
2019-03-05T00:57:53.283Z,97623.80
2019-03-05T01:00:01.847Z,97617.60
2019-03-05T01:02:39.018Z,97619.80
2019-03-05T01:05:21.293Z,97624.71
2019-03-05T01:07:27.190Z,97625.58
2019-03-05T01:09:31.571Z,97633.55
2019-03-05T01:11:35.438Z,97639.25
2019-03-05T01:13:39.609Z,97636.48
2019-03-05T01:15:45.552Z,97635.38
2019-03-05T01:17:49.258Z,97636.95
2019-03-05T01:19:53.065Z,97628.17
2019-03-05T01:21:56.843Z,97630.11
2019-03-05T01:24:00.561Z,97632.44
2019-03-05T01:26:04.763Z,97627.76
2019-03-05T01:28:08.544Z,97623.08
2019-03-05T01:30:30.706Z,97619.44
2019-03-05T01:32:48.551Z,97631.27
2019-03-05T01:35:07.749Z,97632.40
2019-03-05T01:37:11.529Z,97626.64
2019-03-05T01:39:26.057Z,97613.40
2019-03-05T01:41:30.099Z,97620.61
2019-03-05T01:43:33.817Z,97622.42
2019-03-05T01:45:37.549Z,97617.27
2019-03-05T01:47:41.374Z,97607.53
2019-03-05T01:49:45.227Z,97607.58
2019-03-05T01:51:48.960Z,97607.12
2019-03-05T01:53:52.662Z,97607.42
2019-03-05T01:55:56.390Z,97608.98
2019-03-05T01:58:00.099Z,97604.06
2019-03-05T02:00:05.152Z,97614.33
2019-03-05T02:02:08.945Z,97615.92
2019-03-05T02:04:12.723Z,97610.28
2019-03-05T02:06:16.850Z,97617.79
2019-03-05T02:08:20.555Z,97617.21
2019-03-05T02:10:24.667Z,97626.13
2019-03-05T02:12:28.367Z,97623.49
2019-03-05T02:14:32.162Z,97621.65
2019-03-05T02:16:36.185Z,97630.63
2019-03-05T02:18:39.984Z,97625.66
2019-03-05T02:20:43.793Z,97627.58
2019-03-05T02:23:00.727Z,97635.22
2019-03-05T02:25:40.816Z,97635.48
2019-03-05T02:28:04.505Z,97625.52
2019-03-05T02:30:44.186Z,97628.01
2019-03-05T02:33:20.869Z,97635.48
2019-03-05T02:35:52.492Z,97632.16
2019-03-05T02:38:22.116Z,97631.82
2019-03-05T02:40:44.411Z,97627.93
2019-03-05T02:43:27.198Z,97628.89
2019-03-05T02:45:51.932Z,97631.28
2019-03-05T02:48:28.929Z,97626.66
2019-03-05T02:51:15.083Z,97626.34
2019-03-05T02:54:09.253Z,97626.13
2019-03-05T02:56:39.350Z,97629.16
2019-03-05T02:58:41.704Z,97625.70
2019-03-05T03:00:56.722Z,97631.98
2019-03-05T03:03:05.972Z,97630.94
2019-03-05T03:05:18.293Z,97635.25
2019-03-05T03:07:21.983Z,97629.40
2019-03-05T03:10:07.339Z,97635.16
2019-03-05T03:12:11.045Z,97643.06
2019-03-05T03:14:14.947Z,97628.34
2019-03-05T03:16:18.682Z,97636.80
2019-03-05T03:18:22.370Z,97637.13
2019-03-05T03:20:26.239Z,97632.67
2019-03-05T03:22:29.952Z,97648.97
2019-03-05T03:24:33.690Z,97638.81
2019-03-05T03:26:37.412Z,97640.72
2019-03-05T03:28:41.098Z,97649.33
2019-03-05T03:30:44.809Z,97639.36
2019-03-05T03:32:48.605Z,97651.67
2019-03-05T03:34:52.303Z,97648.86
2019-03-05T03:36:56.077Z,97656.62
2019-03-05T03:38:59.798Z,97659.73
2019-03-05T03:41:03.588Z,97655.56
2019-03-05T03:43:07.361Z,97651.16
2019-03-05T03:45:13.998Z,97656.28
2019-03-05T03:47:17.716Z,97648.70
2019-03-05T03:49:21.433Z,97650.11
2019-03-05T03:51:25.152Z,97642.35
2019-03-05T03:53:28.879Z,97656.97
2019-03-05T03:55:32.688Z,97658.20
2019-03-05T03:57:36.468Z,97657.02
2019-03-05T03:59:40.164Z,97662.14
2019-03-05T04:01:44.031Z,97653.98
2019-03-05T04:03:47.724Z,97653.98
2019-03-05T04:05:51.675Z,97649.99
2019-03-05T04:07:55.382Z,97647.57
2019-03-05T04:09:59.106Z,97659.96
2019-03-05T04:12:02.875Z,97661.55
2019-03-05T04:14:06.654Z,97656.84
2019-03-05T04:16:10.380Z,97653.56
2019-03-05T04:18:14.096Z,97659.14
2019-03-05T04:20:25.240Z,97658.71
2019-03-05T04:22:28.960Z,97670.20
2019-03-05T04:24:32.695Z,97665.85
2019-03-05T04:26:36.580Z,97669.37
2019-03-05T04:28:40.310Z,97662.63
2019-03-05T04:30:44.042Z,97670.08
2019-03-05T04:32:47.748Z,97663.19
2019-03-05T04:34:51.475Z,97667.88
2019-03-05T04:36:55.349Z,97653.98
2019-03-05T04:38:59.063Z,97667.87
2019-03-05T04:41:02.969Z,97668.05
2019-03-05T04:43:06.691Z,97671.74
2019-03-05T04:45:29.518Z,97670.93
2019-03-05T04:47:33.220Z,97670.52
2019-03-05T04:49:56.029Z,97645.97
2019-03-05T04:52:05.712Z,97643.11
2019-03-05T04:54:09.424Z,97641.12
2019-03-05T04:56:13.237Z,97646.16
2019-03-05T04:58:16.936Z,97646.11
2019-03-05T05:00:20.789Z,97653.37
2019-03-05T05:02:24.778Z,97653.71
2019-03-05T05:04:28.476Z,97647.89
2019-03-05T05:06:32.254Z,97648.83
2019-03-05T05:08:36.033Z,97651.98
2019-03-05T05:10:39.741Z,97649.22
2019-03-05T05:12:43.508Z,97654.09
2019-03-05T05:14:47.219Z,97659.18
2019-03-05T05:16:51.171Z,97663.47
2019-03-05T05:18:54.867Z,97658.84
2019-03-05T05:20:58.635Z,97670.14
2019-03-05T05:23:02.354Z,97669.00
2019-03-05T05:25:06.239Z,97676.75
2019-03-05T05:27:12.587Z,97679.72
2019-03-05T05:29:16.291Z,97680.29
2019-03-05T05:31:20.137Z,97674.63
2019-03-05T05:33:23.956Z,97677.64
2019-03-05T05:35:27.655Z,97681.05
2019-03-05T05:37:31.497Z,97687.80
2019-03-05T05:40:10.850Z,97688.96
2019-03-05T05:42:14.757Z,97687.34
2019-03-05T05:44:18.469Z,97695.48
2019-03-05T05:46:22.206Z,97686.33
2019-03-05T05:48:25.927Z,97696.84
2019-03-05T05:50:29.643Z,97705.14
2019-03-05T05:52:33.390Z,97691.08
2019-03-05T05:54:37.096Z,97692.88
2019-03-05T05:56:40.826Z,97703.78
2019-03-05T05:58:44.524Z,97704.38
2019-03-05T06:00:50.658Z,97694.94
2019-03-05T06:02:54.344Z,97700.44
2019-03-05T06:04:58.052Z,97697.75
2019-03-05T06:07:01.788Z,97697.38
2019-03-05T06:09:07.645Z,97705.47
2019-03-05T06:11:11.445Z,97703.84
2019-03-05T06:13:15.208Z,97713.87
2019-03-05T06:15:18.991Z,97713.47
2019-03-05T06:17:22.827Z,97728.98
2019-03-05T06:19:26.535Z,97728.37
2019-03-05T06:21:30.381Z,97735.04
2019-03-05T06:23:34.234Z,97729.58
2019-03-05T06:25:38.086Z,97741.12
2019-03-05T06:27:42.068Z,97736.70
2019-03-05T06:29:45.797Z,97737.98
2019-03-05T06:31:49.513Z,97731.41
2019-03-05T06:33:53.240Z,97747.82
2019-03-05T06:35:56.953Z,97750.45
2019-03-05T06:38:00.793Z,97742.05
2019-03-05T06:40:05.052Z,97740.46
2019-03-05T06:42:08.828Z,97745.64
2019-03-05T06:44:12.621Z,97737.18
2019-03-05T06:46:16.335Z,97736.56
2019-03-05T06:48:20.182Z,97741.11
2019-03-05T06:50:23.889Z,97741.02
2019-03-05T06:52:27.732Z,97741.80
2019-03-05T06:54:31.440Z,97735.31
2019-03-05T06:56:35.273Z,97736.52
2019-03-05T06:58:39.014Z,97735.76
2019-03-05T07:00:42.719Z,97742.19
2019-03-05T07:02:46.501Z,97745.78
2019-03-05T07:04:59.033Z,97741.99
2019-03-05T07:07:02.880Z,97746.94
2019-03-05T07:09:11.682Z,97756.52
2019-03-05T07:11:54.438Z,97756.45
2019-03-05T07:13:59.478Z,97768.45
2019-03-05T07:16:10.607Z,97772.92
2019-03-05T07:18:52.811Z,97767.87
2019-03-05T07:21:38.892Z,97769.22
2019-03-05T07:24:07.598Z,97776.61
2019-03-05T07:26:11.291Z,97775.84
2019-03-05T07:28:15.092Z,97784.52
2019-03-05T07:30:23.517Z,97783.75
2019-03-05T07:32:27.291Z,97779.33
2019-03-05T07:34:32.290Z,97778.82
2019-03-05T07:36:35.983Z,97776.16
2019-03-05T07:38:39.718Z,97775.83
2019-03-05T07:40:43.420Z,97780.78
2019-03-05T07:42:47.360Z,97791.25
2019-03-05T07:44:51.147Z,97786.41
2019-03-05T07:46:54.844Z,97784.40
2019-03-05T07:48:58.710Z,97782.91
2019-03-05T07:51:02.490Z,97775.74
2019-03-05T07:53:06.283Z,97786.87
2019-03-05T07:55:15.448Z,97790.14
2019-03-05T07:57:19.154Z,97792.47
2019-03-05T07:59:22.882Z,97790.82
2019-03-05T08:01:26.605Z,97791.27
2019-03-05T08:03:30.393Z,97785.28
2019-03-05T08:05:34.381Z,97782.89
2019-03-05T08:07:38.134Z,97782.39
2019-03-05T08:09:41.840Z,97777.28
2019-03-05T08:11:45.545Z,97779.85
2019-03-05T08:14:34.042Z,97780.86
2019-03-05T08:16:37.814Z,97774.05
2019-03-05T08:18:41.694Z,97785.55
2019-03-05T08:20:45.406Z,97780.68
2019-03-05T08:22:49.267Z,97780.86
2019-03-05T08:24:52.994Z,97787.75
2019-03-05T08:26:56.717Z,97784.16
2019-03-05T08:29:02.845Z,97793.34
2019-03-05T08:31:05.933Z,97806.77
2019-03-05T08:33:09.746Z,97802.23
2019-03-05T08:35:13.714Z,97801.46
2019-03-05T08:37:17.414Z,97802.89
2019-03-05T08:39:21.305Z,97786.40
2019-03-05T08:41:25.061Z,97809.23
2019-03-05T08:43:28.874Z,97803.84
2019-03-05T08:45:32.584Z,97805.59
2019-03-05T08:47:36.271Z,97816.81
2019-03-05T08:49:40.059Z,97791.30
2019-03-05T08:51:43.757Z,97803.37
2019-03-05T08:55:54.097Z,97806.61
2019-03-05T09:00:05.455Z,97817.92
2019-03-05T09:02:09.315Z,97821.15
2019-03-05T09:04:13.051Z,97811.80
2019-03-05T09:06:16.878Z,97823.80
2019-03-05T09:08:20.791Z,97806.13
2019-03-05T09:10:25.659Z,97800.18
2019-03-05T09:12:29.755Z,97798.68
2019-03-05T09:14:34.621Z,97801.55
2019-03-05T09:16:38.450Z,97803.38
2019-03-05T09:18:42.186Z,97802.72
2019-03-05T09:20:46.037Z,97801.52
2019-03-05T09:22:49.841Z,97795.59
2019-03-05T09:24:53.768Z,97797.20
2019-03-05T09:26:57.470Z,97806.48
2019-03-05T09:29:01.200Z,97789.23
2019-03-05T09:31:05.248Z,97799.25
2019-03-05T09:33:09.025Z,97802.96
2019-03-05T09:35:13.293Z,97802.03
2019-03-05T09:37:17.008Z,97806.87
2019-03-05T09:39:20.857Z,97791.13
2019-03-05T09:41:24.567Z,97800.19
2019-03-05T09:43:28.306Z,97804.00
2019-03-05T09:45:32.281Z,97798.67
2019-03-05T09:47:35.976Z,97797.11
2019-03-05T09:49:39.830Z,97797.19
2019-03-05T09:51:43.553Z,97802.11
2019-03-05T09:53:47.472Z,97798.87
2019-03-05T09:55:51.707Z,97788.95
2019-03-05T09:58:06.858Z,97808.59
2019-03-05T10:00:01.275Z,97788.77
2019-03-05T10:02:05.396Z,97806.83
2019-03-05T10:04:09.138Z,97796.22
2019-03-05T10:06:12.877Z,97809.86
2019-03-05T10:08:16.749Z,97807.13
2019-03-05T10:10:24.857Z,97799.17
2019-03-05T10:12:30.154Z,97802.44
2019-03-05T10:14:34.144Z,97803.81
2019-03-05T10:16:37.845Z,97803.79
2019-03-05T10:18:41.584Z,97807.02
2019-03-05T10:20:45.349Z,97791.47
2019-03-05T10:22:49.537Z,97816.27
2019-03-05T10:24:53.628Z,97793.88
2019-03-05T10:26:57.494Z,97798.02
2019-03-05T10:29:01.701Z,97796.64
2019-03-05T10:31:05.644Z,97793.83
2019-03-05T10:33:10.197Z,97806.19
2019-03-05T10:35:14.079Z,97791.55
2019-03-05T10:37:18.993Z,97800.35
2019-03-05T10:39:30.685Z,97805.02
2019-03-05T10:41:30.749Z,97804.90
2019-03-05T10:43:34.728Z,97784.85
2019-03-05T10:45:40.362Z,97790.41
2019-03-05T10:47:44.152Z,97793.70
2019-03-05T10:49:47.971Z,97795.36
2019-03-05T10:51:51.766Z,97795.09
2019-03-05T10:53:55.508Z,97795.11
2019-03-05T10:55:59.383Z,97785.56
2019-03-05T10:58:03.342Z,97777.39
2019-03-05T11:00:10.400Z,97775.77
2019-03-05T11:02:15.199Z,97782.84
2019-03-05T11:04:18.981Z,97787.74
2019-03-05T11:06:22.682Z,97787.48
2019-03-05T11:08:27.424Z,97773.86
2019-03-05T11:10:31.697Z,97779.03
2019-03-05T11:12:35.493Z,97769.20
2019-03-05T11:14:39.449Z,97761.59
2019-03-05T11:16:43.166Z,97762.39
2019-03-05T11:18:46.950Z,97761.31
2019-03-05T11:20:50.907Z,97753.67
2019-03-05T11:22:54.815Z,97768.95
2019-03-05T11:24:58.623Z,97757.22
2019-03-05T11:27:02.330Z,97754.77
2019-03-05T11:29:06.109Z,97763.48
2019-03-05T11:31:10.349Z,97759.63
2019-03-05T11:33:14.340Z,97752.77
2019-03-05T11:35:20.155Z,97751.52
2019-03-05T11:37:23.941Z,97755.51
2019-03-05T11:39:27.725Z,97756.65
2019-03-05T11:41:31.790Z,97760.83
2019-03-05T11:43:35.516Z,97764.41
2019-03-05T11:45:40.140Z,97758.98
2019-03-05T11:47:44.133Z,97773.80
2019-03-05T11:49:47.936Z,97758.21
2019-03-05T11:51:51.689Z,97749.50
2019-03-05T11:53:55.385Z,97754.45
2019-03-05T11:55:59.182Z,97763.20
2019-03-05T11:58:02.896Z,97779.57
2019-03-05T12:00:08.727Z,97767.56
2019-03-05T12:02:21.556Z,97781.69
2019-03-05T12:04:17.964Z,97769.36
2019-03-05T12:06:21.755Z,97784.45
2019-03-05T12:08:25.469Z,97785.77
2019-03-05T12:10:29.264Z,97791.77
2019-03-05T12:12:32.974Z,97797.41
2019-03-05T12:14:36.767Z,97796.00
2019-03-05T12:16:41.736Z,97798.11
2019-03-05T12:18:45.467Z,97800.19
2019-03-05T12:20:49.262Z,97800.36
2019-03-05T12:22:52.958Z,97801.70
2019-03-05T12:24:57.637Z,97811.22
2019-03-05T12:27:02.259Z,97802.98
2019-03-05T12:29:06.048Z,97795.84
2019-03-05T12:31:09.836Z,97793.57
2019-03-05T12:33:13.620Z,97813.54
2019-03-05T12:35:17.478Z,97794.35
2019-03-05T12:37:21.206Z,97805.19
2019-03-05T12:39:25.063Z,97793.22
2019-03-05T12:41:28.785Z,97795.05
2019-03-05T12:43:32.594Z,97796.09
2019-03-05T12:45:36.434Z,97796.33
2019-03-05T12:47:40.199Z,97795.23
2019-03-05T12:49:43.935Z,97792.88
2019-03-05T12:51:47.712Z,97793.74
2019-03-05T12:53:51.435Z,97800.14
2019-03-05T12:55:55.156Z,97791.08
2019-03-05T12:57:58.857Z,97793.95
2019-03-05T13:00:02.584Z,97794.45
2019-03-05T13:02:06.523Z,97790.48
2019-03-05T13:08:21.928Z,97791.64
2019-03-05T13:10:25.943Z,97797.00
2019-03-05T13:12:32.154Z,97789.92
2019-03-05T13:14:38.289Z,97791.51
2019-03-05T13:16:40.798Z,97797.96
2019-03-05T13:18:44.471Z,97797.06
2019-03-05T13:20:48.378Z,97796.57
2019-03-05T13:22:52.092Z,97795.77
2019-03-05T13:24:55.833Z,97802.32
2019-03-05T13:26:59.532Z,97801.30
2019-03-05T13:29:03.338Z,97801.59
2019-03-05T13:31:07.220Z,97802.19
2019-03-05T13:33:10.930Z,97806.85
2019-03-05T13:35:15.740Z,97801.69
2019-03-05T13:37:19.503Z,97809.83
2019-03-05T13:39:23.895Z,97802.48
2019-03-05T13:41:27.710Z,97812.77
2019-03-05T13:43:31.572Z,97799.12
2019-03-05T13:45:35.489Z,97810.98
2019-03-05T13:47:41.659Z,97807.68
2019-03-05T13:49:59.839Z,97808.44
2019-03-05T13:52:42.619Z,97810.67
2019-03-05T13:55:06.854Z,97812.41
2019-03-05T13:57:44.200Z,97817.23
2019-03-05T13:59:51.447Z,97828.07
2019-03-05T14:01:55.138Z,97823.97
2019-03-05T14:04:03.110Z,97819.94
2019-03-05T14:06:51.126Z,97826.80
2019-03-05T14:09:14.460Z,97835.00
2019-03-05T14:11:18.190Z,97821.70
2019-03-05T14:13:23.656Z,97832.52
2019-03-05T14:15:27.593Z,97832.17
2019-03-05T14:17:35.003Z,97848.41
2019-03-05T14:19:38.793Z,97836.17
2019-03-05T14:21:42.725Z,97849.16
2019-03-05T14:23:46.848Z,97841.59
2019-03-05T14:25:50.787Z,97844.03
2019-03-05T14:27:54.485Z,97847.08
2019-03-05T14:29:58.254Z,97850.36
2019-03-05T14:32:02.309Z,97850.66
2019-03-05T14:34:06.143Z,97860.15
2019-03-05T14:36:09.898Z,97864.45
2019-03-05T14:38:13.807Z,97863.09
2019-03-05T14:40:24.592Z,97869.07
2019-03-05T14:42:26.191Z,97870.42
2019-03-05T14:44:39.486Z,97874.53
2019-03-05T14:46:36.766Z,97873.45
2019-03-05T14:48:40.533Z,97870.77
2019-03-05T14:50:44.520Z,97866.44
2019-03-05T14:52:48.230Z,97863.12
2019-03-05T14:54:51.944Z,97863.42
2019-03-05T14:56:55.813Z,97869.15
2019-03-05T14:58:59.553Z,97868.02
2019-03-05T15:01:03.345Z,97862.60
2019-03-05T15:03:07.111Z,97873.48
2019-03-05T15:05:11.225Z,97865.57
2019-03-05T15:07:15.087Z,97870.16
2019-03-05T15:09:18.784Z,97882.94
2019-03-05T15:11:22.570Z,97886.25
2019-03-05T15:13:26.443Z,97884.18
2019-03-05T15:15:30.869Z,97888.06
2019-03-05T15:17:34.781Z,97890.63
2019-03-05T15:19:38.501Z,97888.09
2019-03-05T15:21:42.263Z,97894.16
2019-03-05T15:23:46.000Z,97895.59
2019-03-05T15:25:49.768Z,97898.08
2019-03-05T15:27:53.637Z,97904.63
2019-03-05T15:29:57.302Z,97899.73
2019-03-05T15:32:01.168Z,97906.74
2019-03-05T15:34:04.981Z,97911.41
2019-03-05T15:36:08.910Z,97910.28
2019-03-05T15:38:12.673Z,97906.70
2019-03-05T15:40:16.567Z,97913.19
2019-03-05T15:42:20.348Z,97914.20
2019-03-05T15:44:24.014Z,97912.44
2019-03-05T15:46:27.912Z,97922.12
2019-03-05T15:48:31.653Z,97922.56
2019-03-05T15:50:35.501Z,97921.17
2019-03-05T15:52:39.275Z,97924.93
2019-03-05T15:54:43.064Z,97923.49
2019-03-05T15:56:46.789Z,97934.30
2019-03-05T15:58:50.495Z,97932.38
2019-03-05T16:00:54.214Z,97936.45
2019-03-05T16:02:58.086Z,97938.84
2019-03-05T16:05:11.382Z,97944.80
2019-03-05T16:07:10.976Z,97945.55
2019-03-05T16:09:18.250Z,97944.38
2019-03-05T16:11:22.096Z,97942.14
2019-03-05T16:13:25.846Z,97946.20
2019-03-05T16:15:29.618Z,97951.94
2019-03-05T16:17:33.345Z,97959.63
2019-03-05T16:19:37.056Z,97960.45
2019-03-05T16:21:41.357Z,97972.87
2019-03-05T16:23:46.334Z,97975.55
2019-03-05T16:25:51.876Z,97974.10
2019-03-05T16:27:55.761Z,97978.12
2019-03-05T16:29:59.475Z,97984.33
2019-03-05T16:32:15.989Z,97984.85
2019-03-05T16:34:28.236Z,97983.23
2019-03-05T16:36:53.884Z,97994.34
2019-03-05T16:39:33.297Z,97991.94
2019-03-05T16:41:47.883Z,97989.70
2019-03-05T16:44:02.914Z,98000.50
2019-03-05T16:46:43.939Z,98000.75
2019-03-05T16:49:05.532Z,98011.02
2019-03-05T16:51:15.267Z,98018.55
2019-03-05T16:53:36.819Z,98013.91
2019-03-05T16:55:52.005Z,98023.12
2019-03-05T16:58:27.250Z,98025.52
2019-03-05T17:00:49.048Z,98027.70
2019-03-05T17:02:55.325Z,98035.48
2019-03-05T17:05:18.050Z,98036.37
2019-03-05T17:07:50.128Z,98039.92
2019-03-05T17:10:09.234Z,98031.06
2019-03-05T17:12:13.146Z,98039.75
2019-03-05T17:14:16.953Z,98046.25
2019-03-05T17:16:20.819Z,98050.36
2019-03-05T17:18:24.631Z,98050.25
2019-03-05T17:20:28.535Z,98048.59
2019-03-05T17:22:32.272Z,98054.25
2019-03-05T17:24:36.146Z,98059.08
2019-03-05T17:26:39.956Z,98064.59
2019-03-05T17:28:43.749Z,98077.48
2019-03-05T17:30:47.531Z,98079.66
2019-03-05T17:32:51.446Z,98083.14
2019-03-05T17:34:55.149Z,98086.18
2019-03-05T17:36:58.923Z,98085.72
2019-03-05T17:39:02.691Z,98082.80
2019-03-05T17:41:06.412Z,98093.78
2019-03-05T17:43:10.302Z,98092.89
2019-03-05T17:45:18.263Z,98091.59
2019-03-05T17:47:22.032Z,98097.01
2019-03-05T17:49:25.950Z,98099.00
2019-03-05T17:51:31.056Z,98109.83
2019-03-05T17:53:34.969Z,98112.59
2019-03-05T17:55:38.746Z,98113.13
2019-03-05T17:57:42.455Z,98116.07
2019-03-05T17:59:46.344Z,98112.02
2019-03-05T18:01:51.515Z,98113.95
2019-03-05T18:03:55.363Z,98127.33
2019-03-05T18:05:59.112Z,98128.19
2019-03-05T18:08:02.940Z,98129.84
2019-03-05T18:10:07.399Z,98117.98
2019-03-05T18:12:11.407Z,98129.60
2019-03-05T18:14:15.246Z,98131.20
2019-03-05T18:16:19.026Z,98144.20
2019-03-05T18:18:22.800Z,98137.14
2019-03-05T18:20:26.519Z,98138.09
2019-03-05T18:22:30.257Z,98136.48
2019-03-05T18:24:34.094Z,98140.50
2019-03-05T18:26:37.793Z,98136.70
2019-03-05T18:28:42.478Z,98137.48
2019-03-05T18:30:46.732Z,98142.63
2019-03-05T18:32:50.597Z,98141.07
2019-03-05T18:34:54.352Z,98143.56
2019-03-05T18:36:58.117Z,98142.84
2019-03-05T18:39:01.885Z,98146.44
2019-03-05T18:41:05.729Z,98145.47
2019-03-05T18:43:09.444Z,98140.44
2019-03-05T18:45:16.006Z,98153.28
2019-03-05T18:47:19.793Z,98150.16
2019-03-05T18:49:23.610Z,98159.75
2019-03-05T18:51:27.356Z,98162.06
2019-03-05T18:53:31.136Z,98163.34
2019-03-05T18:55:34.914Z,98167.80
2019-03-05T18:57:38.614Z,98167.92
2019-03-05T18:59:42.440Z,98166.22
2019-03-05T19:01:46.162Z,98172.58
2019-03-05T19:03:50.044Z,98176.23
2019-03-05T19:05:53.900Z,98179.62
2019-03-05T19:07:57.603Z,98179.33
2019-03-05T19:10:01.414Z,98181.72
2019-03-05T19:12:05.494Z,98193.88
2019-03-05T19:14:09.408Z,98196.49
2019-03-05T19:16:13.185Z,98196.93
2019-03-05T19:18:16.964Z,98200.62
2019-03-05T19:20:22.380Z,98209.98
2019-03-05T19:22:26.122Z,98214.75
2019-03-05T19:24:29.959Z,98212.81
2019-03-05T19:26:33.796Z,98212.45
2019-03-05T19:28:37.525Z,98218.05
2019-03-05T19:30:41.436Z,98227.72
2019-03-05T19:32:45.218Z,98225.46
2019-03-05T19:34:48.963Z,98225.69
2019-03-05T19:36:52.661Z,98229.11
2019-03-05T19:38:56.635Z,98230.38
2019-03-05T19:41:00.417Z,98230.30
2019-03-05T19:43:04.479Z,98232.39
2019-03-05T19:45:09.022Z,98228.50
2019-03-05T20:59:42.764Z,98339.25
2019-03-05T21:01:48.094Z,98342.36
2019-03-05T21:03:59.514Z,98343.09
2019-03-05T21:06:03.398Z,98345.27
2019-03-05T21:08:07.244Z,98343.11
2019-03-05T21:10:11.197Z,98347.87
2019-03-05T21:12:14.950Z,98341.34
2019-03-05T21:14:18.685Z,98347.06
2019-03-05T21:16:22.600Z,98345.92
2019-03-05T21:18:26.295Z,98347.36
2019-03-05T21:20:30.103Z,98353.26
2019-03-05T21:22:33.798Z,98350.36
2019-03-05T21:24:37.504Z,98347.05
2019-03-05T21:26:41.227Z,98344.88
2019-03-05T21:28:44.934Z,98346.33
2019-03-05T21:30:48.742Z,98348.81
2019-03-05T21:32:52.625Z,98348.16
2019-03-05T21:34:56.343Z,98349.22
2019-03-05T21:37:00.071Z,98347.44
2019-03-05T21:39:05.366Z,98354.05
2019-03-05T21:41:09.351Z,98351.59
2019-03-05T21:43:13.122Z,98353.55
2019-03-05T21:45:23.150Z,98353.44
2019-03-05T21:47:27.001Z,98349.48
2019-03-05T21:49:30.801Z,98353.22
2019-03-05T21:51:34.537Z,98348.75
2019-03-05T21:53:38.314Z,98351.95
2019-03-05T21:55:42.148Z,98354.75
2019-03-05T21:57:46.213Z,98353.48
2019-03-05T21:59:49.907Z,98359.29
2019-03-05T22:01:53.963Z,98362.16
2019-03-05T22:03:57.693Z,98361.65
2019-03-05T22:06:01.452Z,98370.62
2019-03-05T22:08:05.224Z,98373.70
2019-03-05T22:10:11.737Z,98372.75
2019-03-05T22:12:15.481Z,98376.89
2019-03-05T22:14:19.200Z,98373.58
2019-03-05T22:16:23.053Z,98373.25
2019-03-05T22:18:26.850Z,98367.14
2019-03-05T22:20:30.645Z,98371.57
2019-03-05T22:22:34.762Z,98372.50
2019-03-05T22:24:38.473Z,98371.16
2019-03-05T22:26:42.215Z,98383.14
2019-03-05T22:28:46.096Z,98378.16
2019-03-05T22:30:49.808Z,98383.41
2019-03-05T22:32:53.777Z,98383.80
2019-03-05T22:34:57.667Z,98380.17
2019-03-05T22:37:01.582Z,98390.08
2019-03-05T22:39:06.856Z,98380.67
2019-03-05T22:41:10.563Z,98383.48
2019-03-05T22:43:14.483Z,98387.84
2019-03-05T22:45:19.726Z,98391.14
2019-03-05T22:47:23.795Z,98383.92
2019-03-05T22:49:27.559Z,98392.81
2019-03-05T22:51:31.315Z,98395.50
2019-03-05T22:53:35.043Z,98388.97
2019-03-05T22:55:38.758Z,98389.39
2019-03-05T22:57:42.652Z,98385.03
2019-03-05T22:59:46.611Z,98392.53
2019-03-05T23:01:50.763Z,98392.84
2019-03-05T23:03:56.258Z,98391.05
2019-03-05T23:06:00.933Z,98388.24
2019-03-05T23:08:04.839Z,98397.86
2019-03-05T23:10:10.078Z,98392.87
2019-03-05T23:12:14.172Z,98393.05
2019-03-05T23:14:17.897Z,98396.16
2019-03-05T23:16:21.972Z,98390.66
2019-03-05T23:18:25.794Z,98396.78
2019-03-05T23:20:29.563Z,98397.41
2019-03-05T23:22:33.423Z,98397.91
2019-03-05T23:24:37.377Z,98401.31
2019-03-05T23:26:41.172Z,98409.88
2019-03-05T23:28:45.076Z,98412.56
2019-03-05T23:30:49.129Z,98415.97
2019-03-05T23:32:53.284Z,98413.38
2019-03-05T23:34:57.123Z,98409.64
2019-03-05T23:37:01.118Z,98406.33
2019-03-05T23:39:07.545Z,98403.08
2019-03-05T23:41:11.330Z,98404.83
2019-03-05T23:43:15.191Z,98407.91
2019-03-05T23:45:19.042Z,98401.25
2019-03-05T23:47:22.911Z,98408.34
2019-03-05T23:49:26.856Z,98401.84
2019-03-05T23:51:30.721Z,98407.66
2019-03-05T23:53:34.440Z,98413.15
2019-03-05T23:55:38.140Z,98409.55
2019-03-05T23:57:41.930Z,98415.24
2019-03-05T23:59:45.634Z,98412.23
